createdAt,value
2022-09-03T00:00:16.391Z,80.58
2022-09-03T00:02:54.254Z,80.61
2022-09-03T00:05:41.633Z,81.10
2022-09-03T00:08:23.243Z,81.06
2022-09-03T00:11:00.082Z,80.65
2022-09-03T00:13:33.222Z,80.48
2022-09-03T00:16:00.485Z,79.58
2022-09-03T00:18:32.684Z,79.77
2022-09-03T00:21:08.667Z,79.70
2022-09-03T00:23:38.605Z,80.44
2022-09-03T00:26:18.291Z,80.00
2022-09-03T00:29:00.056Z,80.22
2022-09-03T00:31:34.326Z,80.43
2022-09-03T00:34:07.076Z,80.13
2022-09-03T00:36:44.778Z,79.53
2022-09-03T00:39:16.511Z,79.23
2022-09-03T00:42:06.745Z,79.07
2022-09-03T00:44:49.732Z,80.11
2022-09-03T00:47:34.549Z,79.74
2022-09-03T00:50:19.738Z,80.47
2022-09-03T00:53:04.557Z,79.88
2022-09-03T00:55:47.329Z,79.91
2022-09-03T00:58:30.743Z,79.07
2022-09-03T01:00:57.248Z,79.81
2022-09-03T01:03:43.724Z,80.15
2022-09-03T01:06:15.893Z,79.04
2022-09-03T01:09:12.201Z,78.05
2022-09-03T01:12:17.469Z,77.45
2022-09-03T01:14:50.050Z,77.11
2022-09-03T01:17:21.407Z,77.30
2022-09-03T01:20:13.025Z,77.98
2022-09-03T01:23:01.781Z,79.48
2022-09-03T01:26:17.183Z,79.87
2022-09-03T01:28:58.065Z,82.12
2022-09-03T01:31:36.326Z,82.11
2022-09-03T01:34:12.787Z,83.20
2022-09-03T01:36:51.383Z,82.50
2022-09-03T01:39:28.894Z,85.49
2022-09-03T01:42:20.318Z,86.26
2022-09-03T01:44:58.333Z,86.24
2022-09-03T01:47:51.429Z,85.35
2022-09-03T01:50:24.217Z,86.33
2022-09-03T01:53:25.587Z,85.89
2022-09-03T01:56:19.510Z,86.59
2022-09-03T01:58:55.755Z,86.47
2022-09-03T02:01:28.558Z,85.80
2022-09-03T02:03:59.728Z,84.29
2022-09-03T02:06:27.730Z,83.33
2022-09-03T02:08:54.208Z,81.87
2022-09-03T02:11:20.739Z,83.21
2022-09-03T02:13:59.842Z,83.56
2022-09-03T02:16:30.482Z,84.05
2022-09-03T02:19:02.430Z,83.04
2022-09-03T02:21:35.020Z,85.01
2022-09-03T02:24:03.556Z,86.44
2022-09-03T02:26:30.031Z,86.85
2022-09-03T02:28:57.818Z,88.48
2022-09-03T02:31:25.535Z,87.50
2022-09-03T02:33:52.197Z,83.18
2022-09-03T02:36:27.456Z,82.00
2022-09-03T02:38:54.231Z,83.04
2022-09-03T02:41:20.865Z,80.71
2022-09-03T02:43:54.100Z,80.79
2022-09-03T02:46:36.288Z,80.79
2022-09-03T02:49:03.397Z,81.60
2022-09-03T02:51:38.205Z,83.13
2022-09-03T02:54:05.086Z,85.58
2022-09-03T02:56:32.854Z,85.19
2022-09-03T02:59:00.313Z,83.97
2022-09-03T03:01:27.590Z,82.01
2022-09-03T03:03:54.111Z,83.98
2022-09-03T03:06:21.064Z,84.91
2022-09-03T03:08:48.750Z,87.13
2022-09-03T03:11:18.430Z,85.89
2022-09-03T03:13:48.304Z,87.42
2022-09-03T03:16:16.012Z,88.90
2022-09-03T03:18:42.966Z,89.51
2022-09-03T03:21:11.298Z,88.98
2022-09-03T03:23:38.701Z,88.80
2022-09-03T03:26:08.235Z,89.27
2022-09-03T03:28:35.440Z,89.02
2022-09-03T03:31:12.660Z,88.28
2022-09-03T03:33:40.153Z,87.96
2022-09-03T03:36:07.538Z,87.25
2022-09-03T03:38:34.717Z,87.53
2022-09-03T03:41:18.215Z,88.48
2022-09-03T03:43:45.155Z,88.84
2022-09-03T03:46:12.187Z,88.34
2022-09-03T03:48:39.320Z,87.83
2022-09-03T03:51:08.168Z,86.85
2022-09-03T03:53:36.742Z,86.43
2022-09-03T03:56:13.726Z,86.11
2022-09-03T03:58:44.131Z,86.37
2022-09-03T04:01:15.607Z,85.69
2022-09-03T04:03:44.038Z,87.12
2022-09-03T04:06:12.375Z,86.20
2022-09-03T04:08:40.881Z,86.25
2022-09-03T04:11:12.479Z,87.38
2022-09-03T04:13:41.428Z,87.51
2022-09-03T04:16:14.265Z,87.20
2022-09-03T04:18:41.453Z,86.80
2022-09-03T04:21:16.367Z,88.21
2022-09-03T04:23:45.581Z,86.42
2022-09-03T04:26:18.011Z,85.82
2022-09-03T04:28:45.635Z,86.34
2022-09-03T04:31:13.914Z,86.79
2022-09-03T04:33:43.192Z,85.93
2022-09-03T04:36:20.908Z,84.33
2022-09-03T04:41:39.792Z,85.81
2022-09-03T04:44:08.589Z,85.07
2022-09-03T04:46:35.192Z,86.52
2022-09-03T04:49:02.275Z,86.78
2022-09-03T04:51:30.146Z,86.54
2022-09-03T04:53:58.936Z,87.29
2022-09-03T04:56:30.847Z,87.47
2022-09-03T04:59:01.819Z,87.78
2022-09-03T05:01:29.901Z,87.65
2022-09-03T05:03:57.264Z,88.26
2022-09-03T05:06:25.662Z,87.75
2022-09-03T05:08:52.880Z,87.60
2022-09-03T05:11:20.617Z,87.82
2022-09-03T05:13:49.089Z,87.51
2022-09-03T05:16:15.925Z,87.34
2022-09-03T05:18:42.702Z,87.13
2022-09-03T05:21:16.623Z,87.18
2022-09-03T05:23:47.706Z,87.62
2022-09-03T05:26:20.031Z,86.76
2022-09-03T05:28:46.675Z,86.10
2022-09-03T05:31:15.773Z,84.30
2022-09-03T05:33:45.462Z,82.97
2022-09-03T05:36:37.459Z,79.02
2022-09-03T05:39:05.302Z,74.34
2022-09-03T05:41:34.328Z,72.63
2022-09-03T05:44:01.974Z,72.31
2022-09-03T05:46:32.240Z,74.65
2022-09-03T05:49:00.572Z,69.53
2022-09-03T05:51:27.647Z,69.54
2022-09-03T05:53:55.579Z,65.43
2022-09-03T05:56:24.248Z,66.54
2022-09-03T05:58:56.298Z,67.68
2022-09-03T06:01:24.984Z,66.38
2022-09-03T06:04:00.561Z,65.46
2022-09-03T06:06:28.700Z,65.15
2022-09-03T06:08:58.127Z,65.85
2022-09-03T06:11:30.496Z,67.04
2022-09-03T06:13:58.055Z,64.97
2022-09-03T06:16:30.771Z,68.37
2022-09-03T06:18:59.822Z,67.83
2022-09-03T06:21:26.546Z,68.06
2022-09-03T06:23:59.772Z,66.59
2022-09-03T06:26:29.242Z,67.88
2022-09-03T06:28:56.947Z,64.95
2022-09-03T06:31:29.701Z,66.05
2022-09-03T06:33:59.686Z,61.83
2022-09-03T06:36:28.836Z,64.14
2022-09-03T06:38:56.770Z,62.48
2022-09-03T06:41:25.999Z,65.76
2022-09-03T06:43:54.712Z,63.94
2022-09-03T06:46:23.055Z,63.82
2022-09-03T06:48:54.232Z,64.63
2022-09-03T06:51:24.525Z,63.22
2022-09-03T06:53:52.701Z,62.26
2022-09-03T06:56:26.828Z,61.63
2022-09-03T06:59:00.675Z,62.29
2022-09-03T07:01:31.658Z,60.86
2022-09-03T07:04:01.164Z,60.24
2022-09-03T07:06:33.043Z,61.06
2022-09-03T07:09:00.307Z,59.18
2022-09-03T07:11:29.231Z,58.24
2022-09-03T07:13:56.212Z,56.19
2022-09-03T07:16:25.698Z,56.83
2022-09-03T07:18:52.641Z,56.47
2022-09-03T07:21:22.454Z,52.41
2022-09-03T07:23:52.187Z,54.10
2022-09-03T07:26:21.834Z,52.64
2022-09-03T07:28:49.564Z,53.52
2022-09-03T07:31:25.669Z,54.00
2022-09-03T07:33:56.225Z,54.66
2022-09-03T07:36:24.377Z,52.67
2022-09-03T07:38:51.136Z,53.06
2022-09-03T07:41:17.703Z,51.57
2022-09-03T07:43:54.892Z,54.54
2022-09-03T07:46:23.806Z,53.05
2022-09-03T07:48:52.701Z,52.66
2022-09-03T07:51:21.075Z,51.88
2022-09-03T07:53:48.718Z,53.71
2022-09-03T07:56:15.744Z,52.77
2022-09-03T07:58:42.552Z,52.57
2022-09-03T08:01:14.142Z,55.12
2022-09-03T08:03:45.447Z,56.02
2022-09-03T08:06:12.963Z,56.57
2022-09-03T08:08:40.320Z,55.34
2022-09-03T08:11:11.085Z,55.13
2022-09-03T08:13:41.917Z,55.96
2022-09-03T08:16:09.477Z,54.82
2022-09-03T08:18:39.305Z,55.89
2022-09-03T08:21:12.773Z,55.44
2022-09-03T08:23:40.275Z,54.67
2022-09-03T08:26:07.779Z,54.12
2022-09-03T08:28:35.622Z,52.58
2022-09-03T08:31:07.144Z,55.66
2022-09-03T08:33:39.591Z,55.31
2022-09-03T08:36:14.800Z,53.89
2022-09-03T08:38:43.632Z,54.48
2022-09-03T08:41:37.630Z,50.13
2022-09-03T08:44:25.993Z,48.28
2022-09-03T08:47:20.800Z,50.23
2022-09-03T08:50:06.201Z,47.80
2022-09-03T08:52:50.051Z,49.00
2022-09-03T08:55:45.578Z,47.81
2022-09-03T08:58:15.316Z,46.68
2022-09-03T09:01:03.439Z,47.08
2022-09-03T09:03:32.865Z,47.29
2022-09-03T09:06:25.760Z,46.16
2022-09-03T09:09:11.135Z,44.31
2022-09-03T09:11:40.518Z,43.86
2022-09-03T09:14:25.628Z,45.84
2022-09-03T09:17:01.336Z,44.03
2022-09-03T09:19:50.159Z,45.41
2022-09-03T09:22:54.554Z,47.25
2022-09-03T09:25:23.489Z,44.92
2022-09-03T09:28:04.759Z,45.39
2022-09-03T09:30:32.570Z,44.77
2022-09-03T09:33:00.615Z,42.21
2022-09-03T09:35:27.485Z,45.05
2022-09-03T09:37:56.402Z,44.41
2022-09-03T09:40:34.662Z,42.88
2022-09-03T09:43:11.848Z,44.01
2022-09-03T09:45:40.984Z,43.66
2022-09-03T09:48:31.117Z,44.17
2022-09-03T09:51:33.554Z,44.34
2022-09-03T09:54:08.695Z,43.80
2022-09-03T09:56:35.226Z,44.93
2022-09-03T09:59:06.972Z,45.38
2022-09-03T10:01:34.743Z,45.77
2022-09-03T10:04:10.806Z,43.79
2022-09-03T10:06:56.491Z,44.76
2022-09-03T10:09:30.866Z,44.69
2022-09-03T10:12:05.144Z,43.04
2022-09-03T10:14:39.769Z,44.12
2022-09-03T10:17:24.935Z,43.32
2022-09-03T10:20:28.021Z,44.39
2022-09-03T10:23:16.371Z,44.63
2022-09-03T10:26:07.416Z,43.95
2022-09-03T10:28:40.841Z,41.98
2022-09-03T10:31:17.651Z,41.69
2022-09-03T10:34:37.231Z,43.06
2022-09-03T10:37:16.923Z,42.43
2022-09-03T10:39:52.311Z,41.96
2022-09-03T10:42:24.909Z,41.39
2022-09-03T10:45:06.937Z,40.42
2022-09-03T10:48:22.471Z,40.97
2022-09-03T10:51:06.883Z,42.01
2022-09-03T10:54:18.796Z,41.42
2022-09-03T10:57:12.468Z,40.44
2022-09-03T11:00:12.863Z,42.24
2022-09-03T11:02:45.448Z,42.09
2022-09-03T11:05:59.080Z,39.04
2022-09-03T11:08:30.345Z,40.68
2022-09-03T11:11:10.703Z,38.82
2022-09-03T11:13:44.369Z,41.05
2022-09-03T11:16:18.316Z,42.57
2022-09-03T11:18:49.514Z,41.71
2022-09-03T11:21:19.765Z,43.39
2022-09-03T11:23:49.434Z,43.24
2022-09-03T11:26:23.965Z,40.94
2022-09-03T11:28:56.133Z,40.51
2022-09-03T11:31:50.843Z,42.58
2022-09-03T11:34:31.654Z,42.73
2022-09-03T11:37:18.791Z,43.88
2022-09-03T11:39:52.879Z,44.30
2022-09-03T11:42:35.151Z,42.64
2022-09-03T11:45:23.063Z,42.14
2022-09-03T11:47:50.088Z,39.05
2022-09-03T11:50:21.795Z,41.39
2022-09-03T11:52:51.970Z,42.83
2022-09-03T11:55:50.115Z,42.60
2022-09-03T11:58:25.566Z,42.42
2022-09-03T12:00:55.000Z,43.15
2022-09-03T12:03:28.522Z,42.09
2022-09-03T12:06:16.983Z,41.99
2022-09-03T12:08:59.173Z,41.09
2022-09-03T12:11:44.631Z,42.04
2022-09-03T12:14:22.843Z,41.87
2022-09-03T12:17:22.419Z,41.70
2022-09-03T12:19:54.107Z,41.42
2022-09-03T12:22:23.905Z,39.78
2022-09-03T12:24:51.687Z,40.92
2022-09-03T12:27:24.711Z,40.19
2022-09-03T12:29:59.471Z,37.87
2022-09-03T12:32:40.377Z,39.31
2022-09-03T12:38:10.615Z,41.92
2022-09-03T12:43:39.181Z,40.16
2022-09-03T12:46:14.051Z,37.89
2022-09-03T12:51:56.690Z,36.72
2022-09-03T12:54:29.107Z,37.59
2022-09-03T12:56:58.537Z,37.00
2022-09-03T12:59:27.322Z,38.18
2022-09-03T13:02:00.969Z,40.57
2022-09-03T13:04:32.661Z,39.93
2022-09-03T13:07:14.150Z,38.81
2022-09-03T13:09:41.530Z,38.10
2022-09-03T13:15:30.040Z,33.24
2022-09-03T13:18:08.191Z,33.86
2022-09-03T13:20:49.181Z,34.13
2022-09-03T13:23:30.765Z,36.52
2022-09-03T13:26:28.178Z,33.21
2022-09-03T13:29:22.327Z,35.76
2022-09-03T13:31:55.764Z,34.72
2022-09-03T13:34:35.451Z,35.37
2022-09-03T13:37:23.319Z,34.78
2022-09-03T13:39:55.164Z,34.66
2022-09-03T13:42:31.381Z,35.72
2022-09-03T13:45:13.419Z,38.30
2022-09-03T13:48:03.184Z,38.38
2022-09-03T13:50:40.469Z,39.27
2022-09-03T13:53:16.469Z,39.25
2022-09-03T13:56:05.194Z,40.08
2022-09-03T13:58:42.449Z,40.94
2022-09-03T14:01:20.459Z,42.61
2022-09-03T14:06:40.230Z,42.82
2022-09-03T14:12:25.719Z,43.04
2022-09-03T14:14:53.798Z,44.38
2022-09-03T14:17:29.294Z,44.12
2022-09-03T14:20:05.743Z,43.05
2022-09-03T14:23:00.414Z,45.43
2022-09-03T14:25:27.830Z,44.23
2022-09-03T14:28:15.090Z,45.68
2022-09-03T14:30:55.810Z,47.27
2022-09-03T14:33:31.575Z,45.74
2022-09-03T14:36:17.021Z,45.07
2022-09-03T14:39:20.313Z,47.68
2022-09-03T14:42:33.364Z,46.78
2022-09-03T14:45:39.453Z,45.01
2022-09-03T14:48:30.827Z,44.72
2022-09-03T14:51:19.947Z,44.92
2022-09-03T14:54:07.993Z,46.24
2022-09-03T14:56:46.331Z,45.48
2022-09-03T14:59:20.341Z,44.86
2022-09-03T15:01:54.543Z,45.73
2022-09-03T15:04:28.890Z,46.46
2022-09-03T15:07:13.869Z,45.00
2022-09-03T15:09:47.023Z,46.16
2022-09-03T15:12:13.389Z,44.23
2022-09-03T15:14:50.869Z,44.83
2022-09-03T15:17:25.552Z,43.58
2022-09-03T15:20:12.915Z,45.63
2022-09-03T15:23:02.385Z,45.61
2022-09-03T15:25:52.149Z,46.36
2022-09-03T15:28:38.503Z,45.87
2022-09-03T15:31:32.473Z,45.66
2022-09-03T15:34:16.485Z,46.88
2022-09-03T15:36:51.724Z,49.74
2022-09-03T15:39:24.280Z,49.10
2022-09-03T15:41:56.056Z,49.37
2022-09-03T15:44:23.493Z,49.00
2022-09-03T15:47:00.636Z,49.85
2022-09-03T15:49:48.655Z,49.65
2022-09-03T15:52:21.174Z,50.43
2022-09-03T15:55:26.165Z,50.40
2022-09-03T15:57:52.727Z,51.29
2022-09-03T16:00:22.136Z,49.99
2022-09-03T16:02:59.057Z,51.67
2022-09-03T16:05:45.620Z,52.31
2022-09-03T16:08:42.335Z,52.57
2022-09-03T16:11:15.807Z,54.22
2022-09-03T16:14:07.187Z,54.48
2022-09-03T16:16:49.784Z,53.98
2022-09-03T16:19:34.398Z,53.93
2022-09-03T16:22:04.967Z,54.30
2022-09-03T16:24:41.754Z,54.96
2022-09-03T16:27:18.377Z,53.36
2022-09-03T16:29:59.209Z,54.08
2022-09-03T16:32:43.465Z,54.29
2022-09-03T16:35:19.102Z,53.74
2022-09-03T16:38:27.421Z,56.77
2022-09-03T16:40:58.614Z,54.34
2022-09-03T16:43:47.855Z,55.26
2022-09-03T16:46:17.355Z,54.94
2022-09-03T16:49:10.614Z,56.21
2022-09-03T16:51:56.662Z,54.64
2022-09-03T16:54:55.730Z,56.03
2022-09-03T16:57:34.378Z,55.52
2022-09-03T17:00:11.078Z,56.18
2022-09-03T17:03:01.734Z,56.05
2022-09-03T17:06:05.982Z,56.19
2022-09-03T17:08:46.697Z,56.27
2022-09-03T17:11:38.397Z,55.72
2022-09-03T17:14:26.350Z,56.07
2022-09-03T17:17:09.613Z,55.58
2022-09-03T17:19:43.882Z,56.45
2022-09-03T17:22:32.810Z,56.52
2022-09-03T17:25:04.611Z,56.64
2022-09-03T17:27:45.157Z,57.13
2022-09-03T17:30:24.022Z,56.35
2022-09-03T17:33:51.711Z,57.07
2022-09-03T17:36:31.468Z,56.74
2022-09-03T17:39:35.145Z,56.28
2022-09-03T17:42:06.456Z,57.02
2022-09-03T17:44:54.448Z,57.31
2022-09-03T17:47:35.475Z,57.19
2022-09-03T17:50:17.438Z,57.18
2022-09-03T17:52:55.934Z,57.88
2022-09-03T17:55:42.155Z,58.39
2022-09-03T17:58:11.110Z,57.80
2022-09-03T18:01:02.542Z,58.83
2022-09-03T18:03:37.334Z,57.34
2022-09-03T18:06:07.210Z,57.99
2022-09-03T18:08:58.034Z,57.00
2022-09-03T18:11:50.910Z,57.46
2022-09-03T18:14:24.719Z,57.16
2022-09-03T18:17:07.345Z,57.32
2022-09-03T18:20:03.352Z,57.59
2022-09-03T18:22:59.617Z,58.31
2022-09-03T18:25:45.581Z,57.67
2022-09-03T18:28:33.609Z,58.17
2022-09-03T18:31:18.956Z,58.00
2022-09-03T18:34:04.409Z,57.72
2022-09-03T18:36:51.295Z,57.63
2022-09-03T18:39:45.511Z,57.56
2022-09-03T18:42:33.941Z,57.80
2022-09-03T18:45:47.821Z,58.22
2022-09-03T18:49:13.265Z,58.40
2022-09-03T18:52:21.687Z,58.54
2022-09-03T18:55:12.705Z,59.37
2022-09-03T18:58:20.795Z,59.71
2022-09-03T19:01:27.610Z,60.46
2022-09-03T19:04:50.182Z,59.74
2022-09-03T19:08:06.387Z,59.98
2022-09-03T19:10:58.418Z,60.57
2022-09-03T19:13:53.741Z,60.46
2022-09-03T19:16:47.372Z,60.36
2022-09-03T19:19:44.647Z,61.08
2022-09-03T19:22:41.179Z,61.50
2022-09-03T19:25:31.912Z,62.14
2022-09-03T19:28:40.319Z,62.57
2022-09-03T19:31:33.665Z,62.93
2022-09-03T19:34:37.731Z,63.56
2022-09-03T19:37:34.568Z,63.03
2022-09-03T19:40:46.167Z,62.63
2022-09-03T19:43:40.673Z,63.76
2022-09-03T19:46:44.804Z,65.40
2022-09-03T19:49:54.486Z,66.45
2022-09-03T19:53:18.574Z,66.66
2022-09-03T19:56:07.930Z,66.85
2022-09-03T19:58:55.218Z,66.29
2022-09-03T20:01:40.978Z,67.51
2022-09-03T20:04:32.333Z,67.89
2022-09-03T20:07:19.596Z,67.56
2022-09-03T20:10:05.820Z,68.51
2022-09-03T20:12:40.182Z,69.55
2022-09-03T20:15:08.122Z,71.12
2022-09-03T20:17:40.561Z,70.77
2022-09-03T20:20:16.038Z,71.25
2022-09-03T20:22:58.374Z,71.63
2022-09-03T20:25:33.880Z,71.63
2022-09-03T20:28:28.517Z,71.18
2022-09-03T20:31:05.596Z,72.19
2022-09-03T20:33:47.270Z,72.38
2022-09-03T20:36:30.114Z,73.28
2022-09-03T20:39:21.260Z,72.91
2022-09-03T20:42:03.574Z,72.59
2022-09-03T20:44:39.169Z,72.52
2022-09-03T20:47:29.464Z,71.82
2022-09-03T20:50:20.477Z,71.62
2022-09-03T20:53:15.633Z,71.85
2022-09-03T20:55:43.966Z,71.45
2022-09-03T20:58:35.921Z,71.73
2022-09-03T21:01:05.879Z,71.08
2022-09-03T21:03:47.812Z,72.15
2022-09-03T21:06:32.034Z,71.79
2022-09-03T21:09:29.482Z,71.90
2022-09-03T21:12:17.905Z,71.26
2022-09-03T21:14:55.408Z,71.72
2022-09-03T21:17:28.009Z,71.62
2022-09-03T21:20:00.768Z,71.38
2022-09-03T21:22:48.691Z,71.35
2022-09-03T21:25:24.289Z,71.05
2022-09-03T21:28:01.905Z,69.80
2022-09-03T21:30:29.900Z,69.73
2022-09-03T21:33:12.506Z,70.70
2022-09-03T21:35:42.932Z,70.90
2022-09-03T21:38:14.509Z,70.72
2022-09-03T21:40:47.323Z,70.52
2022-09-03T21:43:33.792Z,71.60
2022-09-03T21:46:15.368Z,71.43
2022-09-03T21:49:00.962Z,71.88
2022-09-03T21:51:35.981Z,71.95
2022-09-03T21:54:09.940Z,71.94
2022-09-03T21:57:06.189Z,72.19
2022-09-03T21:59:36.703Z,72.30
2022-09-03T22:02:06.062Z,72.45
2022-09-03T22:04:32.839Z,72.22
2022-09-03T22:07:29.952Z,72.46
2022-09-03T22:10:13.367Z,71.49
2022-09-03T22:13:15.099Z,71.90
2022-09-03T22:15:50.961Z,72.03
2022-09-03T22:18:29.359Z,71.63
2022-09-03T22:21:03.102Z,71.96
2022-09-03T22:23:43.689Z,71.81
2022-09-03T22:26:22.547Z,71.48
2022-09-03T22:29:02.633Z,71.75
2022-09-03T22:31:39.996Z,72.50
2022-09-03T22:34:15.547Z,72.98
2022-09-03T22:36:50.446Z,73.33
2022-09-03T22:39:37.605Z,73.68
2022-09-03T22:42:28.190Z,74.03
2022-09-03T22:45:03.937Z,73.98
2022-09-03T22:47:54.756Z,73.89
2022-09-03T22:50:28.503Z,73.90
2022-09-03T22:53:23.370Z,73.51
2022-09-03T22:56:00.980Z,74.41
2022-09-03T22:58:33.247Z,73.31
2022-09-03T23:01:08.357Z,73.77
2022-09-03T23:03:42.273Z,73.52
2022-09-03T23:06:46.923Z,73.22
2022-09-03T23:09:21.547Z,72.96
2022-09-03T23:11:52.490Z,72.54
2022-09-03T23:14:24.157Z,71.87
2022-09-03T23:16:52.814Z,72.14
2022-09-03T23:19:43.795Z,72.72
2022-09-03T23:22:13.264Z,71.90
2022-09-03T23:24:59.706Z,70.03
2022-09-03T23:27:31.772Z,70.83
2022-09-03T23:30:00.892Z,70.92
2022-09-03T23:32:33.099Z,69.57
2022-09-03T23:35:02.000Z,68.85
2022-09-03T23:37:47.341Z,69.23
2022-09-03T23:40:33.055Z,69.54
2022-09-03T23:43:09.226Z,70.53
2022-09-03T23:46:04.485Z,70.36
2022-09-03T23:48:40.001Z,71.38
2022-09-03T23:51:13.949Z,72.45
2022-09-03T23:53:49.400Z,72.73
2022-09-03T23:56:40.496Z,73.13
2022-09-03T23:59:47.507Z,73.64
